^^
Grace C. Lehan Memorial Weather Station Historical Data
Daily Summary for July 26, 2021 Units:  English    Metric   Both
Daily Weekly Monthly Yearly
  High: Low: Average:
Temperature: 46.8 °F 35.3 °F 39.6 °F
Dew Point: 38.6 °F 26.9 °F 32.6 °F
Humidity: 96% 55% 77%
Wind Speed: 13.7mph 0mph 2.8mph
Wind Gust: 26mph - -
Wind- - WNW
Pressure: 30.00 in 29.56 in -
Precipitation: 0.04 in    
 
 
Tabular Data for July 26, 2021
Time Temperature Dew Point Pressure Wind Wind Speed Wind Gust Humidity Rainfall Rate (Hourly) solar
00:04 35.3 °F 34 °F 29.56 in Calm     95% 0.00 in 0 W/m2
00:09 35.3 °F 34 °F 29.56 in Calm     95% 0.00 in 0 W/m2
00:14 35.3 °F 34 °F 29.57 in NE 0.6 mph 3 mph 95% 0.00 in 0 W/m2
00:19 35.4 °F 34.1 °F 29.57 in Calm   3 mph 95% 0.00 in 0 W/m2
00:24 35.4 °F 34.1 °F 29.57 in NE 0.2 mph 3 mph 95% 0.00 in 0 W/m2
00:29 35.4 °F 34.1 °F 29.57 in Calm   3 mph 95% 0.00 in 0 W/m2
00:34 35.5 °F 34.2 °F 29.57 in Calm   3 mph 95% 0.00 in 0 W/m2
00:39 35.6 °F 34.3 °F 29.57 in Calm     95% 0.00 in 0 W/m2
00:44 35.6 °F 34.3 °F 29.57 in Calm     95% 0.00 in 0 W/m2
00:49 35.6 °F 34.3 °F 29.57 in Calm     95% 0.00 in 0 W/m2
00:54 35.7 °F 34.4 °F 29.57 in NE 0.3 mph 4 mph 95% 0.00 in 0 W/m2
00:59 35.7 °F 34.4 °F 29.58 in Calm   4 mph 95% 0.00 in 0 W/m2
01:04 35.7 °F 34.4 °F 29.58 in NE 0.1 mph 4 mph 95% 0.00 in 0 W/m2
01:09 35.7 °F 34.4 °F 29.58 in Calm   2 mph 95% 0.00 in 0 W/m2
01:14 35.8 °F 34.5 °F 29.59 in Calm   2 mph 95.2% 0.00 in 0 W/m2
01:19 35.8 °F 34.7 °F 29.59 in NE 0.1 mph 2 mph 95.7% 0.00 in 0 W/m2
01:24 35.8 °F 34.8 °F 29.59 in Calm   2 mph 96% 0.00 in 0 W/m2
01:29 35.8 °F 34.8 °F 29.59 in Calm   2 mph 96% 0.00 in 0 W/m2
01:34 35.8 °F 34.8 °F 29.59 in Calm   2 mph 96% 0.00 in 0 W/m2
01:39 35.8 °F 34.8 °F 29.60 in Calm     96% 0.00 in 0 W/m2
01:44 35.8 °F 34.8 °F 29.60 in Calm     96% 0.00 in 0 W/m2
01:49 35.8 °F 34.8 °F 29.61 in Calm     96% 0.00 in 0 W/m2
01:54 35.8 °F 34.6 °F 29.61 in Calm     95.2% 0.00 in 0 W/m2
01:59 35.9 °F 34.7 °F 29.61 in Calm     95.3% 0.00 in 0 W/m2
02:04 35.9 °F 34.6 °F 29.61 in Calm     95.1% 0.00 in 0 W/m2
02:09 35.9 °F 34.6 °F 29.61 in Calm     95% 0.00 in 0 W/m2
02:14 35.9 °F 34.6 °F 29.61 in Calm     95% 0.00 in 0 W/m2
02:19 35.9 °F 34.6 °F 29.61 in Calm     95% 0.00 in 0 W/m2
02:24 35.9 °F 34.6 °F 29.62 in Calm     95% 0.00 in 0 W/m2
02:29 35.9 °F 34.6 °F 29.61 in Calm     95% 0.00 in 0 W/m2
02:34 35.9 °F 34.6 °F 29.61 in Calm     95% 0.00 in 0 W/m2
02:39 35.9 °F 34.6 °F 29.61 in Calm     95% 0.00 in 0 W/m2
02:44 35.9 °F 34.6 °F 29.62 in Calm     95% 0.00 in 0 W/m2
02:49 35.9 °F 34.6 °F 29.62 in Calm     95% 0.00 in 0 W/m2
02:54 35.9 °F 34.6 °F 29.63 in Calm     95% 0.00 in 0 W/m2
02:59 35.9 °F 34.6 °F 29.63 in Calm     95% 0.00 in 0 W/m2
03:04 35.9 °F 34.6 °F 29.63 in Calm     95% 0.00 in 0 W/m2
03:09 35.9 °F 34.6 °F 29.64 in Calm     95% 0.00 in 0 W/m2
03:14 36 °F 34.9 °F 29.64 in Calm     95.9% 0.00 in 0 W/m2
03:19 36 °F 35 °F 29.63 in Calm     96% 0.00 in 0 W/m2
03:24 36.1 °F 35.1 °F 29.63 in Calm     96% 0.00 in 0 W/m2
03:29 36.2 °F 35.2 °F 29.64 in NE 0.1 mph 1 mph 96% 0.00 in 0 W/m2
03:34 36.3 °F 35.3 °F 29.64 in Calm   1 mph 96% 0.00 in 0 W/m2
03:39 36.4 °F 35.4 °F 29.64 in Calm     96% 0.00 in 0 W/m2
03:44 36.4 °F 35.4 °F 29.64 in NE 0.3 mph 6 mph 96% 0.00 in 0 W/m2
03:49 36.6 °F 35.5 °F 29.64 in NE 0.1 mph 6 mph 96% 0.00 in 0 W/m2
03:54 36.7 °F 35.6 °F 29.65 in Calm   6 mph 96% 0.00 in 0 W/m2
03:59 36.8 °F 35.8 °F 29.65 in Calm   6 mph 96% 0.00 in 0 W/m2
04:00 36.8 °F 35.8 °F 29.65 in Calm   6 mph 96% 0.00 in 0 W/m2
04:09 37 °F 35.9 °F 29.65 in Calm     96% 0.00 in 0 W/m2
04:14 37.1 °F 36 °F 29.64 in Calm     96% 0.00 in 0 W/m2
04:19 37.2 °F 36.1 °F 29.65 in Calm     96% 0.00 in 0 W/m2
04:24 37.3 °F 36.2 °F 29.65 in Calm     96% 0.00 in 0 W/m2
04:29 37.3 °F 36.3 °F 29.65 in Calm     96% 0.00 in 0 W/m2
04:34 37.4 °F 36.3 °F 29.66 in Calm     96% 0.00 in 0 W/m2
04:39 37.5 °F 36.4 °F 29.66 in Calm     96% 0.00 in 0 W/m2
04:44 37.5 °F 36.5 °F 29.66 in Calm     96% 0.00 in 0 W/m2
04:49 37.5 °F 36.5 °F 29.66 in Calm     96% 0.00 in 0 W/m2
04:54 37.5 °F 36.5 °F 29.65 in Calm   2 mph 96% 0.00 in 0 W/m2
04:59 37.5 °F 36.5 °F 29.65 in Calm   2 mph 96% 0.00 in 0 W/m2
05:04 37.5 °F 36.5 °F 29.65 in Calm   2 mph 96% 0.00 in 0 W/m2
05:09 37.4 °F 36.4 °F 29.65 in Calm     96% 0.00 in 0 W/m2
05:14 37.4 °F 36.4 °F 29.66 in NE 0.1 mph 1 mph 96% 0.00 in 0 W/m2
05:19 37.4 °F 36.3 °F 29.66 in NE 0.2 mph 2 mph 96% 0.00 in 0 W/m2
05:24 37.3 °F 36.3 °F 29.65 in NE 0.1 mph 3 mph 96% 0.00 in 0 W/m2
05:29 37.3 °F 36.3 °F 29.66 in Calm   3 mph 96% 0.00 in 0 W/m2
05:34 37.3 °F 36.3 °F 29.66 in Calm   3 mph 96% 0.00 in 0 W/m2
05:39 37.3 °F 36.3 °F 29.66 in Calm     96% 0.00 in 0 W/m2
05:44 37.4 °F 36.3 °F 29.67 in Calm     96% 0.00 in 0 W/m2
05:49 37.3 °F 36.3 °F 29.68 in Calm     96% 0.00 in 0 W/m2
05:54 37.3 °F 36.3 °F 29.69 in NE 0.2 mph 2 mph 96% 0.00 in 0 W/m2
05:59 37.3 °F 36.3 °F 29.69 in NE 0.2 mph 2 mph 96% 0.00 in 0 W/m2
06:04 37.3 °F 36.3 °F 29.70 in NE 1.1 mph 4 mph 96% 0.00 in 0 W/m2
06:09 37.3 °F 36.3 °F 29.70 in NNW 1 mph 7 mph 96% 0.00 in 0 W/m2
06:14 37.3 °F 36.3 °F 29.71 in WNW 0.9 mph 7 mph 96% 0.00 in 0 W/m2
06:19 37.3 °F 36.3 °F 29.72 in NW 3.3 mph 10 mph 96% 0.00 in 0 W/m2
06:24 37.4 °F 36.4 °F 29.73 in NW 2.4 mph 10 mph 96% 0.00 in 0 W/m2
06:29 37.7 °F 36.7 °F 29.73 in NW 3.1 mph 11 mph 96% 0.00 in 0 W/m2
06:34 37.9 °F 36.9 °F 29.74 in NNW 1.9 mph 12 mph 96% 0.00 in 0 W/m2
06:39 38 °F 37 °F 29.75 in WNW 4.7 mph 12 mph 96% 0.00 in 0 W/m2
06:44 38.2 °F 37.2 °F 29.75 in WNW 4 mph 13 mph 96% 0.00 in 0 W/m2
06:49 38.4 °F 37.3 °F 29.76 in WNW 6.4 mph 18 mph 96% 0.00 in 0 W/m2
06:54 38.6 °F 37.3 °F 29.76 in WNW 5 mph 18 mph 95% 0.00 in 0 W/m2
06:59 38.7 °F 37.4 °F 29.77 in WNW 5.4 mph 18 mph 95% 0.00 in 0 W/m2
07:04 38.9 °F 37.6 °F 29.77 in NW 3.7 mph 18 mph 94.9% 0.00 in 0 W/m2
07:09 39.1 °F 37.5 °F 29.77 in NW 3.7 mph 12 mph 94% 0.00 in 0 W/m2
07:14 39.2 °F 37.4 °F 29.76 in NW 3.8 mph 15 mph 93.2% 0.00 in 0 W/m2
07:19 39.3 °F 37.3 °F 29.76 in NW 3.8 mph 15 mph 92.4% 0.00 in 5 W/m2
07:24 39.3 °F 37.1 °F 29.76 in NW 1.8 mph 15 mph 91.8% 0.00 in 18 W/m2
07:29 39.3 °F 37 °F 29.76 in NNW 2.3 mph 15 mph 91.2% 0.00 in 18 W/m2
07:34 39.3 °F 36.9 °F 29.77 in NNW 3 mph 15 mph 91% 0.00 in 23 W/m2
07:39 39.3 °F 36.8 °F 29.77 in NW 1.3 mph 9 mph 90.6% 0.00 in 26 W/m2
07:44 39.3 °F 36.6 °F 29.76 in Calm   9 mph 90% 0.00 in 42 W/m2
07:49 39.4 °F 36.7 °F 29.77 in NW 0.9 mph 9 mph 90% 0.01 in 54 W/m2
07:54 39.8 °F 37.3 °F 29.77 in Calm   9 mph 91% 0.01 in 83 W/m2
07:59 40.3 °F 37.7 °F 29.77 in NW 1.4 mph 9 mph 90.3% 0.01 in 83 W/m2
08:00 40.5 °F 37.8 °F 29.77 in Calm   9 mph 90% 0.01 in 83 W/m2
08:09 41.3 °F 38.1 °F 29.77 in NNW 1.2 mph 5 mph 88.4% 0.01 in 130 W/m2
08:14 41.7 °F 38.6 °F 29.78 in NNW 2.1 mph 6 mph 88.5% 0.02 in 149 W/m2
08:19 42.1 °F 38 °F 29.78 in NW 3.1 mph 9 mph 85.1% 0.02 in 149 W/m2
08:24 42.4 °F 37.7 °F 29.78 in WNW 3.1 mph 10 mph 83.4% 0.02 in 165 W/m2
08:29 42.6 °F 37.5 °F 29.78 in NW 2.7 mph 10 mph 82% 0.02 in 197 W/m2
08:34 42.9 °F 37.5 °F 29.79 in NW 1.9 mph 10 mph 81.2% 0.02 in 185 W/m2
08:39 43.2 °F 37.5 °F 29.79 in NW 2.1 mph 10 mph 80.2% 0.03 in 171 W/m2
08:44 43.3 °F 37.4 °F 29.79 in NNW 0.8 mph 10 mph 79.6% 0.03 in 186 W/m2
08:49 43.3 °F 37.3 °F 29.80 in NNW 1.7 mph 10 mph 79% 0.03 in 220 W/m2
08:54 43.4 °F 37.3 °F 29.80 in NNW 1.9 mph 10 mph 79% 0.03 in 229 W/m2
08:59 43.5 °F 37.1 °F 29.80 in NW 1.3 mph 10 mph 78% 0.03 in 258 W/m2
09:04 43.7 °F 37.3 °F 29.80 in NW 0.6 mph 10 mph 77.9% 0.03 in 278 W/m2
09:09 44 °F 37.2 °F 29.80 in NW 2.3 mph 6 mph 76.7% 0.02 in 193 W/m2
09:14 44 °F 36.6 °F 29.81 in NW 2.4 mph 7 mph 75.1% 0.03 in 165 W/m2
09:19 43.8 °F 36.4 °F 29.81 in WNW 2.1 mph 7 mph 75.2% 0.03 in 211 W/m2
09:24 43.6 °F 36.3 °F 29.81 in NW 4 mph 11 mph 75.4% 0.03 in 155 W/m2
09:29 43.3 °F 35.9 °F 29.81 in WNW 5.8 mph 13 mph 75% 0.03 in 155 W/m2
09:34 43 °F 35.4 °F 29.81 in WNW 9.9 mph 22 mph 74.3% 0.03 in 130 W/m2
09:39 42.4 °F 34.8 °F 29.81 in WNW 10.7 mph 22 mph 74% 0.02 in 121 W/m2
09:44 42 °F 34 °F 29.82 in WNW 12 mph 22 mph 73.2% 0.02 in 142 W/m2
09:49 41.7 °F 33.9 °F 29.82 in WNW 10 mph 22 mph 73.4% 0.02 in 118 W/m2
09:54 41.6 °F 34 °F 29.83 in WNW 7.6 mph 22 mph 74% 0.02 in 120 W/m2
09:59 41.6 °F 34.1 °F 29.82 in NW 1.4 mph 22 mph 74.4% 0.02 in 125 W/m2
10:04 41.7 °F 34.1 °F 29.82 in WNW 3.7 mph 22 mph 74.1% 0.02 in 139 W/m2
10:09 41.9 °F 34 °F 29.82 in NW 5.7 mph 15 mph 73.4% 0.01 in 178 W/m2
10:14 42.2 °F 34.2 °F 29.82 in NW 5.1 mph 15 mph 73% 0.01 in 279 W/m2
10:19 42.6 °F 34.2 °F 29.82 in NW 5.3 mph 17 mph 72.1% 0.01 in 338 W/m2
10:24 43.2 °F 34.8 °F 29.82 in NW 2.9 mph 17 mph 72% 0.01 in 399 W/m2
10:29 44 °F 35.4 °F 29.82 in NW 4.3 mph 17 mph 71.5% 0.01 in 415 W/m2
10:34 44.7 °F 35 °F 29.83 in NW 6.8 mph 17 mph 68.6% 0.01 in 420 W/m2
10:39 45 °F 34.8 °F 29.83 in WNW 2.8 mph 14 mph 67.3% 0.00 in 411 W/m2
10:44 45.4 °F 35.3 °F 29.83 in NW 3.1 mph 14 mph 67.7% 0.00 in 322 W/m2
10:49 45.7 °F 35 °F 29.83 in WNW 3.8 mph 14 mph 65.9% 0.00 in 322 W/m2
10:54 45.7 °F 34.4 °F 29.84 in NW 7.3 mph 18 mph 64.2% 0.00 in 260 W/m2
10:59 45.6 °F 34.3 °F 29.83 in NNW 3 mph 18 mph 64.5% 0.00 in 165 W/m2
11:04 45.6 °F 34.5 °F 29.84 in NW 6.3 mph 18 mph 64.9% 0.00 in 118 W/m2
11:09 45.5 °F 33.8 °F 29.84 in WNW 5.7 mph 18 mph 63.4% 0.00 in 155 W/m2
11:14 45.4 °F 33.7 °F 29.85 in WNW 6 mph 18 mph 63.3% 0.00 in 105 W/m2
11:19 45.4 °F 33.5 °F 29.85 in WNW 9.8 mph 23 mph 62.8% 0.00 in 134 W/m2
11:24 45.3 °F 33.4 °F 29.85 in WNW 4.9 mph 23 mph 63.1% 0.00 in 105 W/m2
11:29 45.3 °F 33.6 °F 29.85 in NW 7.6 mph 23 mph 63.3% 0.00 in 199 W/m2
11:34 45.4 °F 33.3 °F 29.85 in WNW 7.4 mph 23 mph 62.4% 0.00 in 197 W/m2
11:39 45.4 °F 33.2 °F 29.84 in NW 8.9 mph 19 mph 62.1% 0.00 in 281 W/m2
11:44 45.3 °F 32.7 °F 29.84 in NW 8 mph 19 mph 61% 0.00 in 359 W/m2
11:49 45.1 °F 32.2 °F 29.84 in NW 10.4 mph 19 mph 60.2% 0.00 in 146 W/m2
11:54 44.9 °F 32.1 °F 29.84 in NW 7.8 mph 19 mph 60.5% 0.00 in 125 W/m2
11:59 44.9 °F 31.9 °F 29.84 in NW 10.1 mph 21 mph 60.1% 0.00 in 473 W/m2
12:00 44.8 °F 32.2 °F 29.83 in NW 13.7 mph 21 mph 61% 0.00 in 473 W/m2
12:09 45 °F 31.8 °F 29.83 in WNW 9.3 mph 18 mph 59.5% 0.00 in 123 W/m2
12:14 45.1 °F 31.7 °F 29.83 in WNW 6.4 mph 18 mph 59% 0.00 in 482 W/m2
12:19 45.3 °F 32 °F 29.83 in NW 7 mph 20 mph 59.3% 0.00 in 473 W/m2
12:24 45.5 °F 31.7 °F 29.83 in NW 6.6 mph 21 mph 58.1% 0.00 in 244 W/m2
12:29 45.5 °F 31.5 °F 29.83 in NW 9.4 mph 22 mph 57.8% 0.00 in 49 W/m2
12:34 45.3 °F 31 °F 29.83 in NW 7.3 mph 22 mph 57% 0.00 in 178 W/m2
12:39 45.3 °F 31.5 °F 29.82 in NW 4.9 mph 17 mph 58.2% 0.00 in 338 W/m2
12:44 45.8 °F 32.1 °F 29.82 in NW 8.1 mph 21 mph 58.6% 0.00 in 459 W/m2
12:49 46.2 °F 31.6 °F 29.82 in NNW 4.8 mph 21 mph 56.7% 0.00 in 454 W/m2
12:54 46.6 °F 32 °F 29.82 in NW 5.2 mph 21 mph 56.6% 0.00 in 306 W/m2
12:59 46.6 °F 31.6 °F 29.82 in NW 5.6 mph 21 mph 55.7% 0.00 in 237 W/m2
13:04 46.4 °F 31.7 °F 29.82 in NW 2.8 mph 21 mph 56.2% 0.00 in 69 W/m2
13:09 46.4 °F 31.6 °F 29.82 in NW 2.8 mph 9 mph 56% 0.00 in 418 W/m2
13:14 46.6 °F 31.8 °F 29.82 in NW 5.7 mph 14 mph 56% 0.00 in 362 W/m2
13:15 46.8 °F 31.8 °F 29.82 in NW 4.3 mph 14 mph 55.6% 0.00 in 162 W/m2
13:30 46.3 °F 31 °F 29.82 in NW 6 mph 23 mph 55% 0.00 in 206 W/m2
14:00 45.5 °F 30.3 °F 29.83 in NW 8 mph 23 mph 55% 0.00 in 113 W/m2
14:30 45.4 °F 30.6 °F 29.84 in NW 7 mph 18 mph 56% 0.00 in 165 W/m2
15:00 44.9 °F 30.2 °F 29.86 in NW 8 mph 20 mph 56% 0.00 in 89 W/m2
15:30 42.7 °F 29 °F 29.87 in NW 8 mph 26 mph 58% 0.00 in 47 W/m2
16:04 41.7 °F 29.1 °F 29.89 in NW 7.1 mph 26 mph 60.8% 0.00 in 47 W/m2
16:08 41.5 °F 29.1 °F 29.89 in WNW 8.6 mph 18 mph 61% 0.00 in 19 W/m2
16:14 41.5 °F 29.1 °F 29.89 in NW 5.1 mph 22 mph 61% 0.00 in 14 W/m2
16:19 41.4 °F 28.8 °F 29.90 in NW 5.2 mph 22 mph 60.5% 0.00 in 9 W/m2
16:24 41.3 °F 28.9 °F 29.90 in NW 3.5 mph 22 mph 61% 0.00 in 5 W/m2
16:29 41.2 °F 28.8 °F 29.90 in NW 3.9 mph 22 mph 61% 0.00 in 0 W/m2
16:34 41.1 °F 28.7 °F 29.90 in NW 8.8 mph 22 mph 61% 0.00 in 0 W/m2
16:39 41 °F 28.6 °F 29.90 in WNW 8.7 mph 19 mph 61.1% 0.00 in 0 W/m2
16:44 40.9 °F 28.7 °F 29.91 in WNW 8.8 mph 22 mph 61.3% 0.00 in 0 W/m2
16:49 40.8 °F 28.5 °F 29.91 in NW 6.9 mph 22 mph 61.1% 0.00 in 0 W/m2
16:54 40.7 °F 28.6 °F 29.91 in NNW 2.6 mph 22 mph 61.9% 0.00 in 0 W/m2
16:59 40.5 °F 28.6 °F 29.91 in NW 1.4 mph 22 mph 62% 0.00 in 0 W/m2
17:04 40.4 °F 28.4 °F 29.92 in NW 4.2 mph 22 mph 62% 0.00 in 0 W/m2
17:09 40.2 °F 28.4 °F 29.92 in NW 2.2 mph 15 mph 62.3% 0.00 in 0 W/m2
17:14 40 °F 28.4 °F 29.92 in NNW 3.5 mph 15 mph 62.8% 0.00 in 0 W/m2
17:19 39.9 °F 28.3 °F 29.92 in NW 2 mph 15 mph 63% 0.00 in 0 W/m2
17:24 39.8 °F 28.3 °F 29.92 in NW 0.7 mph 15 mph 63.2% 0.00 in 0 W/m2
17:29 39.6 °F 28.2 °F 29.92 in NW 1.2 mph 15 mph 63.2% 0.00 in 0 W/m2
17:34 39.5 °F 28.3 °F 29.92 in NW 0.7 mph 15 mph 63.8% 0.00 in 0 W/m2
17:39 39.4 °F 28.3 °F 29.92 in WNW 1 mph 6 mph 64% 0.00 in 0 W/m2
17:44 39.3 °F 28.1 °F 29.92 in NW 1.6 mph 7 mph 64% 0.00 in 0 W/m2
17:49 39.2 °F 28.1 °F 29.93 in NW 0.8 mph 7 mph 64.2% 0.00 in 0 W/m2
17:54 39.1 °F 28.3 °F 29.93 in NW 0.2 mph 7 mph 64.9% 0.00 in 0 W/m2
17:59 39 °F 28.2 °F 29.93 in Calm   7 mph 65% 0.00 in 0 W/m2
18:04 38.9 °F 28.1 °F 29.93 in NW 1 mph 7 mph 65% 0.00 in 0 W/m2
18:09 38.8 °F 28.1 °F 29.93 in NNW 0.6 mph 7 mph 65% 0.00 in 0 W/m2
18:14 38.8 °F 28.1 °F 29.93 in NW 2 mph 12 mph 65% 0.00 in 0 W/m2
18:19 38.8 °F 28.3 °F 29.93 in NW 0.6 mph 12 mph 65.6% 0.00 in 0 W/m2
18:24 38.8 °F 28.4 °F 29.93 in NW 0.2 mph 12 mph 66% 0.00 in 0 W/m2
18:29 38.8 °F 28.4 °F 29.93 in NW 0.1 mph 12 mph 66% 0.00 in 0 W/m2
18:34 38.7 °F 28.4 °F 29.93 in NW 1 mph 12 mph 66% 0.00 in 0 W/m2
18:39 38.7 °F 28.6 °F 29.93 in NW 0.2 mph 4 mph 66.7% 0.00 in 0 W/m2
18:44 38.7 °F 28.3 °F 29.93 in Calm   4 mph 66% 0.00 in 0 W/m2
18:49 38.6 °F 28.3 °F 29.93 in Calm   4 mph 66% 0.00 in 0 W/m2
18:54 38.5 °F 28.2 °F 29.94 in Calm   4 mph 66% 0.00 in 0 W/m2
18:59 38.4 °F 28.1 °F 29.94 in NW 0.1 mph 4 mph 66.1% 0.00 in 0 W/m2
19:04 38.2 °F 28.3 °F 29.94 in NW 0.1 mph 4 mph 67% 0.00 in 0 W/m2
19:09 38.1 °F 28.2 °F 29.94 in Calm   1 mph 67% 0.00 in 0 W/m2
19:14 38 °F 28.1 °F 29.94 in Calm   1 mph 67.2% 0.00 in 0 W/m2
19:19 37.9 °F 28.3 °F 29.95 in Calm   1 mph 68% 0.00 in 0 W/m2
19:24 37.9 °F 28.3 °F 29.95 in NW 0.7 mph 4 mph 68% 0.00 in 0 W/m2
19:29 37.9 °F 28.6 °F 29.95 in NW 1.4 mph 6 mph 68.8% 0.00 in 0 W/m2
19:34 38 °F 28.8 °F 29.95 in NNW 1 mph 6 mph 69% 0.00 in 0 W/m2
19:39 38.1 °F 28.8 °F 29.95 in NW 0.6 mph 6 mph 69% 0.00 in 0 W/m2
19:44 38.1 °F 28.8 °F 29.95 in NW 1.5 mph 6 mph 69% 0.00 in 0 W/m2
19:49 38.1 °F 28.8 °F 29.95 in NNW 0.8 mph 6 mph 69% 0.00 in 0 W/m2
19:54 38 °F 28.8 °F 29.96 in NW 1.3 mph 10 mph 69% 0.00 in 0 W/m2
19:59 38 °F 28.9 °F 29.95 in NW 1.2 mph 10 mph 69.6% 0.00 in 0 W/m2
20:04 38 °F 29.1 °F 29.95 in NNW 1 mph 1 mph 70% 0.00 in 0 W/m2
20:09 38 °F 29.1 °F 29.95 in NNW 1 mph 6 mph 70% 0.00 in 0 W/m2
20:14 38 °F 29.1 °F 29.95 in NW 2.8 mph 7 mph 70% 0.00 in 0 W/m2
20:19 38 °F 29.1 °F 29.95 in NW 2.7 mph 10 mph 70% 0.00 in 0 W/m2
20:24 38.2 °F 29.3 °F 29.95 in NNW 1.5 mph 10 mph 70% 0.00 in 0 W/m2
20:29 38.3 °F 29.4 °F 29.96 in NNW 0.9 mph 10 mph 70% 0.00 in 0 W/m2
20:34 38.4 °F 29.2 °F 29.96 in NW 3.9 mph 13 mph 69.4% 0.00 in 0 W/m2
20:39 38.5 °F 29.5 °F 29.96 in NW 2 mph 13 mph 69.6% 0.00 in 0 W/m2
20:44 38.6 °F 29.5 °F 29.96 in NNW 2.1 mph 13 mph 69.5% 0.00 in 0 W/m2
20:49 38.6 °F 29.4 °F 29.96 in NNW 1.6 mph 13 mph 69% 0.00 in 0 W/m2
20:54 38.7 °F 29.4 °F 29.96 in NW 2.2 mph 13 mph 69% 0.00 in 0 W/m2
20:59 38.7 °F 29.4 °F 29.97 in NW 1.7 mph 13 mph 69% 0.00 in 0 W/m2
21:04 38.7 °F 29.4 °F 29.97 in NW 3.6 mph 13 mph 68.9% 0.00 in 0 W/m2
21:09 38.8 °F 29.2 °F 29.97 in NW 1.5 mph 11 mph 68.1% 0.00 in 0 W/m2
21:14 38.8 °F 29.5 °F 29.97 in NW 1.1 mph 11 mph 68.9% 0.00 in 0 W/m2
21:19 38.8 °F 29.1 °F 29.97 in NW 2 mph 11 mph 68% 0.00 in 0 W/m2
21:24 38.8 °F 29.2 °F 29.97 in NW 5.2 mph 14 mph 68% 0.00 in 0 W/m2
21:29 38.9 °F 29.2 °F 29.98 in NW 2.8 mph 14 mph 68% 0.00 in 0 W/m2
21:34 39 °F 29.2 °F 29.98 in NW 4.2 mph 14 mph 67.7% 0.00 in 0 W/m2
21:39 39 °F 29.1 °F 29.98 in NW 4.1 mph 14 mph 67.2% 0.00 in 0 W/m2
21:44 39 °F 28.9 °F 29.98 in NW 4.2 mph 14 mph 66.6% 0.00 in 0 W/m2
21:49 39.1 °F 28.6 °F 29.99 in NW 5.7 mph 23 mph 65.8% 0.00 in 0 W/m2
21:54 39.1 °F 28.3 °F 29.99 in NW 5.3 mph 23 mph 65% 0.00 in 0 W/m2
21:59 39.1 °F 28.3 °F 29.99 in NW 4.5 mph 23 mph 65% 0.00 in 0 W/m2
22:04 39.1 °F 28.2 °F 29.99 in NW 7.9 mph 23 mph 64.5% 0.00 in 0 W/m2
22:09 39.1 °F 28 °F 29.99 in NW 7.8 mph 19 mph 64% 0.00 in 0 W/m2
22:14 39.1 °F 27.6 °F 29.99 in NW 5.2 mph 19 mph 63% 0.00 in 0 W/m2
22:19 39.1 °F 27.6 °F 29.99 in NW 5.4 mph 19 mph 63% 0.00 in 0 W/m2
22:24 39.1 °F 27.6 °F 29.99 in NNW 3.6 mph 19 mph 63.1% 0.00 in 0 W/m2
22:29 39.1 °F 27.6 °F 29.99 in NW 6.5 mph 19 mph 63.1% 0.00 in 0 W/m2
22:34 39 °F 27.5 °F 29.99 in NW 7 mph 19 mph 63% 0.00 in 0 W/m2
22:39 39 °F 27.3 °F 29.99 in NW 6.2 mph 19 mph 62.5% 0.00 in 0 W/m2
22:44 38.9 °F 27.2 °F 30.00 in NW 6.7 mph 20 mph 62.4% 0.00 in 0 W/m2
22:49 38.9 °F 27.2 °F 30.00 in NW 4 mph 20 mph 62.4% 0.00 in 0 W/m2
22:54 38.9 °F 27.4 °F 30.00 in NW 3.1 mph 20 mph 63% 0.00 in 0 W/m2
22:59 38.8 °F 27.3 °F 30.00 in NW 4.2 mph 20 mph 63% 0.00 in 0 W/m2
23:00 38.8 °F 27.3 °F 30.00 in WNW 2 mph 20 mph 63% 0.00 in 0 W/m2
23:09 38.7 °F 27.2 °F 30.00 in NW 3.6 mph 13 mph 63% 0.00 in 0 W/m2
23:14 38.6 °F 27.3 °F 30.00 in NW 7.2 mph 18 mph 63.3% 0.00 in 0 W/m2
23:19 38.6 °F 27.1 °F 30.00 in NW 5.2 mph 18 mph 63% 0.00 in 0 W/m2
23:24 38.6 °F 27.1 °F 30.00 in NW 2.5 mph 18 mph 63% 0.00 in 0 W/m2
23:29 38.5 °F 27.1 °F 30.00 in NW 3 mph 18 mph 63.1% 0.00 in 0 W/m2
23:34 38.5 °F 27 °F 30.00 in NNW 3 mph 18 mph 63.1% 0.00 in 0 W/m2
23:39 38.5 °F 27 °F 30.00 in NW 3.6 mph 12 mph 63% 0.00 in 0 W/m2
23:44 38.4 °F 27.1 °F 30.00 in NW 3.5 mph 14 mph 63.5% 0.00 in 0 W/m2
23:49 38.4 °F 26.9 °F 30.00 in NW 4.2 mph 14 mph 63% 0.00 in 0 W/m2
23:53 38.4 °F 26.9 °F 30.00 in NW 2.3 mph 14 mph 63% 0.00 in 0 W/m2
Hartford County Weather
Compliments of Weather Underground - 2 mb